sensor_id;sensor_type;location;lat;lon;timestamp;P1;durP1;ratioP1;P2;durP2;ratioP2
27889;SDS011;15238;49.082;9.102;2023-06-05T00:01:38;4.80;;;1.45;;
27889;SDS011;15238;49.082;9.102;2023-06-05T00:03:38;3.63;;;1.50;;
27889;SDS011;15238;49.082;9.102;2023-06-05T00:05:39;2.42;;;1.40;;
27889;SDS011;15238;49.082;9.102;2023-06-05T00:07:39;2.75;;;1.73;;
27889;SDS011;15238;49.082;9.102;2023-06-05T00:09:40;3.58;;;1.48;;
27889;SDS011;15238;49.082;9.102;2023-06-05T00:11:41;5.25;;;1.50;;
27889;SDS011;15238;49.082;9.102;2023-06-05T00:13:42;2.60;;;1.50;;
27889;SDS011;15238;49.082;9.102;2023-06-05T00:15:42;3.28;;;1.90;;
27889;SDS011;15238;49.082;9.102;2023-06-05T00:17:43;2.95;;;1.40;;
27889;SDS011;15238;49.082;9.102;2023-06-05T00:19:44;3.80;;;1.70;;
27889;SDS011;15238;49.082;9.102;2023-06-05T00:21:45;7.00;;;2.08;;
27889;SDS011;15238;49.082;9.102;2023-06-05T00:23:45;2.53;;;1.58;;
27889;SDS011;15238;49.082;9.102;2023-06-05T00:25:46;5.40;;;1.75;;
27889;SDS011;15238;49.082;9.102;2023-06-05T00:27:46;3.17;;;1.50;;
27889;SDS011;15238;49.082;9.102;2023-06-05T00:29:47;5.40;;;1.80;;
27889;SDS011;15238;49.082;9.102;2023-06-05T00:31:48;2.65;;;1.30;;
27889;SDS011;15238;49.082;9.102;2023-06-05T00:33:49;3.47;;;1.70;;
27889;SDS011;15238;49.082;9.102;2023-06-05T00:35:52;4.32;;;1.65;;
27889;SDS011;15238;49.082;9.102;2023-06-05T00:37:53;2.95;;;1.40;;
27889;SDS011;15238;49.082;9.102;2023-06-05T00:39:53;8.13;;;1.63;;
27889;SDS011;15238;49.082;9.102;2023-06-05T00:41:54;6.70;;;1.20;;
27889;SDS011;15238;49.082;9.102;2023-06-05T00:43:54;2.10;;;1.30;;
27889;SDS011;15238;49.082;9.102;2023-06-05T00:45:57;3.72;;;1.48;;
27889;SDS011;15238;49.082;9.102;2023-06-05T00:47:59;3.45;;;1.60;;
27889;SDS011;15238;49.082;9.102;2023-06-05T00:50:00;2.67;;;1.23;;
27889;SDS011;15238;49.082;9.102;2023-06-05T00:52:02;2.38;;;1.40;;
27889;SDS011;15238;49.082;9.102;2023-06-05T00:54:03;8.25;;;1.77;;
27889;SDS011;15238;49.082;9.102;2023-06-05T00:56:04;4.50;;;2.00;;
27889;SDS011;15238;49.082;9.102;2023-06-05T00:58:05;4.43;;;1.50;;
27889;SDS011;15238;49.082;9.102;2023-06-05T01:00:06;7.18;;;1.92;;
27889;SDS011;15238;49.082;9.102;2023-06-05T01:02:08;5.07;;;1.60;;
27889;SDS011;15238;49.082;9.102;2023-06-05T01:04:09;3.80;;;1.70;;
27889;SDS011;15238;49.082;9.102;2023-06-05T01:06:09;5.85;;;1.92;;
27889;SDS011;15238;49.082;9.102;2023-06-05T01:08:11;4.10;;;1.67;;
27889;SDS011;15238;49.082;9.102;2023-06-05T01:10:14;4.00;;;1.88;;
27889;SDS011;15238;49.082;9.102;2023-06-05T01:12:24;3.50;;;1.80;;
27889;SDS011;15238;49.082;9.102;2023-06-05T01:14:30;2.65;;;1.65;;
27889;SDS011;15238;49.082;9.102;2023-06-05T01:16:33;2.45;;;1.60;;
27889;SDS011;15238;49.082;9.102;2023-06-05T01:18:34;3.00;;;1.63;;
27889;SDS011;15238;49.082;9.102;2023-06-05T01:20:35;2.30;;;1.45;;
27889;SDS011;15238;49.082;9.102;2023-06-05T01:22:37;3.30;;;1.58;;
27889;SDS011;15238;49.082;9.102;2023-06-05T01:24:38;3.13;;;1.58;;
27889;SDS011;15238;49.082;9.102;2023-06-05T01:26:45;5.53;;;1.55;;
27889;SDS011;15238;49.082;9.102;2023-06-05T01:29:03;2.83;;;1.33;;
27889;SDS011;15238;49.082;9.102;2023-06-05T01:31:10;3.97;;;1.67;;
27889;SDS011;15238;49.082;9.102;2023-06-05T01:33:17;2.70;;;1.38;;
27889;SDS011;15238;49.082;9.102;2023-06-05T01:35:25;3.10;;;1.83;;
27889;SDS011;15238;49.082;9.102;2023-06-05T01:37:33;4.47;;;1.45;;
27889;SDS011;15238;49.082;9.102;2023-06-05T01:39:41;2.60;;;1.50;;
27889;SDS011;15238;49.082;9.102;2023-06-05T01:41:43;9.10;;;1.58;;
27889;SDS011;15238;49.082;9.102;2023-06-05T01:43:45;3.08;;;1.38;;
27889;SDS011;15238;49.082;9.102;2023-06-05T01:45:48;3.85;;;1.42;;
27889;SDS011;15238;49.082;9.102;2023-06-05T01:47:48;3.17;;;1.35;;
27889;SDS011;15238;49.082;9.102;2023-06-05T01:49:50;3.10;;;1.42;;
27889;SDS011;15238;49.082;9.102;2023-06-05T01:51:50;3.17;;;1.40;;
27889;SDS011;15238;49.082;9.102;2023-06-05T01:53:51;4.22;;;1.00;;
27889;SDS011;15238;49.082;9.102;2023-06-05T01:55:52;3.72;;;1.50;;
27889;SDS011;15238;49.082;9.102;2023-06-05T01:57:57;1.55;;;1.20;;
27889;SDS011;15238;49.082;9.102;2023-06-05T01:59:57;2.33;;;1.45;;
27889;SDS011;15238;49.082;9.102;2023-06-05T02:01:58;4.38;;;1.33;;
27889;SDS011;15238;49.082;9.102;2023-06-05T02:03:58;2.35;;;1.45;;
27889;SDS011;15238;49.082;9.102;2023-06-05T02:05:59;2.20;;;1.05;;
27889;SDS011;15238;49.082;9.102;2023-06-05T02:08:00;3.28;;;1.15;;
27889;SDS011;15238;49.082;9.102;2023-06-05T02:10:08;2.08;;;1.30;;
27889;SDS011;15238;49.082;9.102;2023-06-05T02:12:09;1.92;;;1.23;;
27889;SDS011;15238;49.082;9.102;2023-06-05T02:14:10;5.60;;;1.10;;
27889;SDS011;15238;49.082;9.102;2023-06-05T02:16:15;2.30;;;1.20;;
27889;SDS011;15238;49.082;9.102;2023-06-05T02:18:17;1.63;;;1.25;;
27889;SDS011;15238;49.082;9.102;2023-06-05T02:20:17;2.80;;;1.30;;
27889;SDS011;15238;49.082;9.102;2023-06-05T02:22:23;2.67;;;1.35;;
27889;SDS011;15238;49.082;9.102;2023-06-05T02:24:24;4.35;;;1.13;;
27889;SDS011;15238;49.082;9.102;2023-06-05T02:26:26;2.20;;;1.10;;
27889;SDS011;15238;49.082;9.102;2023-06-05T02:28:27;1.75;;;1.17;;
27889;SDS011;15238;49.082;9.102;2023-06-05T02:30:27;4.72;;;1.17;;
27889;SDS011;15238;49.082;9.102;2023-06-05T02:32:28;5.38;;;1.27;;
27889;SDS011;15238;49.082;9.102;2023-06-05T02:34:29;2.33;;;1.55;;
27889;SDS011;15238;49.082;9.102;2023-06-05T02:36:29;3.25;;;1.40;;
27889;SDS011;15238;49.082;9.102;2023-06-05T02:38:32;2.95;;;1.23;;
27889;SDS011;15238;49.082;9.102;2023-06-05T02:40:33;1.85;;;1.38;;
27889;SDS011;15238;49.082;9.102;2023-06-05T02:42:34;2.50;;;1.40;;
27889;SDS011;15238;49.082;9.102;2023-06-05T02:44:35;1.95;;;1.20;;
27889;SDS011;15238;49.082;9.102;2023-06-05T02:46:36;3.53;;;1.10;;
27889;SDS011;15238;49.082;9.102;2023-06-05T02:48:36;4.40;;;1.50;;
27889;SDS011;15238;49.082;9.102;2023-06-05T02:50:37;4.03;;;1.30;;
27889;SDS011;15238;49.082;9.102;2023-06-05T02:52:38;3.10;;;1.50;;
27889;SDS011;15238;49.082;9.102;2023-06-05T02:54:39;1.23;;;0.95;;
27889;SDS011;15238;49.082;9.102;2023-06-05T02:56:40;2.47;;;1.17;;
27889;SDS011;15238;49.082;9.102;2023-06-05T02:58:40;2.00;;;1.10;;
27889;SDS011;15238;49.082;9.102;2023-06-05T03:00:43;3.55;;;1.23;;
27889;SDS011;15238;49.082;9.102;2023-06-05T03:02:44;2.65;;;1.38;;
27889;SDS011;15238;49.082;9.102;2023-06-05T03:04:50;4.15;;;1.58;;
27889;SDS011;15238;49.082;9.102;2023-06-05T03:06:53;2.85;;;1.35;;
27889;SDS011;15238;49.082;9.102;2023-06-05T03:08:56;3.20;;;1.63;;
27889;SDS011;15238;49.082;9.102;2023-06-05T03:10:57;2.63;;;1.25;;
27889;SDS011;15238;49.082;9.102;2023-06-05T03:12:58;2.05;;;1.17;;
27889;SDS011;15238;49.082;9.102;2023-06-05T03:14:58;2.17;;;1.30;;
27889;SDS011;15238;49.082;9.102;2023-06-05T03:17:00;1.67;;;1.20;;
27889;SDS011;15238;49.082;9.102;2023-06-05T03:19:01;2.90;;;1.52;;
27889;SDS011;15238;49.082;9.102;2023-06-05T03:21:01;1.27;;;1.00;;
27889;SDS011;15238;49.082;9.102;2023-06-05T03:23:02;3.63;;;1.38;;
27889;SDS011;15238;49.082;9.102;2023-06-05T03:25:03;2.50;;;1.17;;
27889;SDS011;15238;49.082;9.102;2023-06-05T03:27:04;5.95;;;1.10;;
27889;SDS011;15238;49.082;9.102;2023-06-05T03:29:04;3.35;;;1.35;;
27889;SDS011;15238;49.082;9.102;2023-06-05T03:31:05;2.60;;;1.10;;
27889;SDS011;15238;49.082;9.102;2023-06-05T03:33:05;2.33;;;1.55;;
27889;SDS011;15238;49.082;9.102;2023-06-05T03:35:06;3.47;;;1.25;;
27889;SDS011;15238;49.082;9.102;2023-06-05T03:37:07;2.17;;;1.20;;
27889;SDS011;15238;49.082;9.102;2023-06-05T03:39:08;3.05;;;1.38;;
27889;SDS011;15238;49.082;9.102;2023-06-05T03:41:08;2.53;;;1.20;;
27889;SDS011;15238;49.082;9.102;2023-06-05T03:43:09;7.28;;;1.60;;
27889;SDS011;15238;49.082;9.102;2023-06-05T03:45:10;2.75;;;1.33;;
27889;SDS011;15238;49.082;9.102;2023-06-05T03:47:13;1.48;;;1.00;;
27889;SDS011;15238;49.082;9.102;2023-06-05T03:49:14;3.05;;;1.40;;
27889;SDS011;15238;49.082;9.102;2023-06-05T03:51:15;3.05;;;1.30;;
27889;SDS011;15238;49.082;9.102;2023-06-05T03:53:18;4.40;;;1.35;;
27889;SDS011;15238;49.082;9.102;2023-06-05T03:55:19;3.90;;;1.20;;
27889;SDS011;15238;49.082;9.102;2023-06-05T03:57:22;4.30;;;1.48;;
27889;SDS011;15238;49.082;9.102;2023-06-05T03:59:23;3.75;;;1.75;;
27889;SDS011;15238;49.082;9.102;2023-06-05T04:01:25;4.20;;;1.35;;
27889;SDS011;15238;49.082;9.102;2023-06-05T04:03:26;6.20;;;1.67;;
27889;SDS011;15238;49.082;9.102;2023-06-05T04:05:27;6.13;;;1.40;;
27889;SDS011;15238;49.082;9.102;2023-06-05T04:07:27;2.08;;;1.25;;
27889;SDS011;15238;49.082;9.102;2023-06-05T04:09:28;3.75;;;1.38;;
27889;SDS011;15238;49.082;9.102;2023-06-05T04:11:28;3.72;;;1.63;;
27889;SDS011;15238;49.082;9.102;2023-06-05T04:13:30;1.90;;;1.10;;
27889;SDS011;15238;49.082;9.102;2023-06-05T04:15:31;1.80;;;1.10;;
27889;SDS011;15238;49.082;9.102;2023-06-05T04:17:33;2.45;;;1.15;;
27889;SDS011;15238;49.082;9.102;2023-06-05T04:19:34;1.30;;;1.02;;
27889;SDS011;15238;49.082;9.102;2023-06-05T04:21:34;2.58;;;1.50;;
27889;SDS011;15238;49.082;9.102;2023-06-05T04:23:36;2.80;;;1.52;;
27889;SDS011;15238;49.082;9.102;2023-06-05T04:25:36;3.78;;;1.02;;
27889;SDS011;15238;49.082;9.102;2023-06-05T04:27:43;1.85;;;1.20;;
27889;SDS011;15238;49.082;9.102;2023-06-05T04:29:45;2.92;;;1.38;;
27889;SDS011;15238;49.082;9.102;2023-06-05T04:31:46;6.40;;;1.70;;
27889;SDS011;15238;49.082;9.102;2023-06-05T04:33:47;2.17;;;1.30;;
27889;SDS011;15238;49.082;9.102;2023-06-05T04:35:48;1.83;;;1.20;;
27889;SDS011;15238;49.082;9.102;2023-06-05T04:37:48;4.90;;;1.30;;
27889;SDS011;15238;49.082;9.102;2023-06-05T04:39:50;5.90;;;1.20;;
27889;SDS011;15238;49.082;9.102;2023-06-05T04:41:50;3.38;;;1.20;;
27889;SDS011;15238;49.082;9.102;2023-06-05T04:43:51;3.80;;;0.93;;
27889;SDS011;15238;49.082;9.102;2023-06-05T04:45:52;3.42;;;1.20;;
27889;SDS011;15238;49.082;9.102;2023-06-05T04:47:53;2.22;;;1.38;;
27889;SDS011;15238;49.082;9.102;2023-06-05T04:49:54;7.10;;;1.38;;
27889;SDS011;15238;49.082;9.102;2023-06-05T04:51:54;4.75;;;1.35;;
27889;SDS011;15238;49.082;9.102;2023-06-05T04:53:56;4.65;;;1.50;;
27889;SDS011;15238;49.082;9.102;2023-06-05T04:55:57;4.32;;;1.10;;
27889;SDS011;15238;49.082;9.102;2023-06-05T04:58:01;3.25;;;1.55;;
27889;SDS011;15238;49.082;9.102;2023-06-05T05:00:04;3.78;;;1.25;;
27889;SDS011;15238;49.082;9.102;2023-06-05T05:02:05;2.92;;;1.15;;
27889;SDS011;15238;49.082;9.102;2023-06-05T05:04:06;3.80;;;1.23;;
27889;SDS011;15238;49.082;9.102;2023-06-05T05:06:06;2.70;;;1.40;;
27889;SDS011;15238;49.082;9.102;2023-06-05T05:08:07;2.35;;;1.30;;
27889;SDS011;15238;49.082;9.102;2023-06-05T05:10:09;3.15;;;1.35;;
27889;SDS011;15238;49.082;9.102;2023-06-05T05:12:10;2.33;;;1.25;;
27889;SDS011;15238;49.082;9.102;2023-06-05T05:14:11;3.20;;;1.50;;
27889;SDS011;15238;49.082;9.102;2023-06-05T05:16:12;2.72;;;1.10;;
27889;SDS011;15238;49.082;9.102;2023-06-05T05:18:12;4.47;;;1.23;;
27889;SDS011;15238;49.082;9.102;2023-06-05T05:20:13;2.33;;;1.20;;
27889;SDS011;15238;49.082;9.102;2023-06-05T05:22:13;2.35;;;1.15;;
27889;SDS011;15238;49.082;9.102;2023-06-05T05:24:14;3.85;;;1.20;;
27889;SDS011;15238;49.082;9.102;2023-06-05T05:26:15;5.40;;;1.38;;
27889;SDS011;15238;49.082;9.102;2023-06-05T05:28:15;4.55;;;1.70;;
27889;SDS011;15238;49.082;9.102;2023-06-05T05:30:16;1.77;;;1.20;;
27889;SDS011;15238;49.082;9.102;2023-06-05T05:32:17;2.15;;;1.23;;
27889;SDS011;15238;49.082;9.102;2023-06-05T05:34:17;2.25;;;1.20;;
27889;SDS011;15238;49.082;9.102;2023-06-05T05:36:18;8.07;;;1.45;;
27889;SDS011;15238;49.082;9.102;2023-06-05T05:38:18;1.80;;;1.10;;
27889;SDS011;15238;49.082;9.102;2023-06-05T05:40:19;4.72;;;1.30;;
27889;SDS011;15238;49.082;9.102;2023-06-05T05:42:20;9.95;;;1.90;;
27889;SDS011;15238;49.082;9.102;2023-06-05T05:44:20;4.38;;;1.45;;
27889;SDS011;15238;49.082;9.102;2023-06-05T05:46:21;6.95;;;1.38;;
27889;SDS011;15238;49.082;9.102;2023-06-05T05:48:21;8.73;;;1.20;;
27889;SDS011;15238;49.082;9.102;2023-06-05T05:50:23;6.13;;;1.45;;
27889;SDS011;15238;49.082;9.102;2023-06-05T05:52:23;3.40;;;1.65;;
27889;SDS011;15238;49.082;9.102;2023-06-05T05:54:24;6.93;;;1.83;;
27889;SDS011;15238;49.082;9.102;2023-06-05T05:56:27;6.43;;;1.10;;
27889;SDS011;15238;49.082;9.102;2023-06-05T05:58:27;3.22;;;1.90;;
27889;SDS011;15238;49.082;9.102;2023-06-05T06:00:28;2.92;;;1.30;;
27889;SDS011;15238;49.082;9.102;2023-06-05T06:02:28;3.75;;;1.48;;
27889;SDS011;15238;49.082;9.102;2023-06-05T06:04:29;6.90;;;1.42;;
27889;SDS011;15238;49.082;9.102;2023-06-05T06:06:30;1.73;;;1.27;;
27889;SDS011;15238;49.082;9.102;2023-06-05T06:08:30;10.23;;;1.50;;
27889;SDS011;15238;49.082;9.102;2023-06-05T06:10:32;11.60;;;1.30;;
27889;SDS011;15238;49.082;9.102;2023-06-05T06:12:34;3.30;;;1.50;;
27889;SDS011;15238;49.082;9.102;2023-06-05T06:14:34;3.55;;;1.50;;
27889;SDS011;15238;49.082;9.102;2023-06-05T06:16:36;2.88;;;1.40;;
27889;SDS011;15238;49.082;9.102;2023-06-05T06:18:37;2.80;;;1.27;;
27889;SDS011;15238;49.082;9.102;2023-06-05T06:20:38;4.43;;;1.55;;
27889;SDS011;15238;49.082;9.102;2023-06-05T06:22:38;7.18;;;1.40;;
27889;SDS011;15238;49.082;9.102;2023-06-05T06:24:43;7.72;;;1.75;;
27889;SDS011;15238;49.082;9.102;2023-06-05T06:26:43;6.80;;;1.48;;
27889;SDS011;15238;49.082;9.102;2023-06-05T06:28:44;4.70;;;1.60;;
27889;SDS011;15238;49.082;9.102;2023-06-05T06:30:45;3.38;;;1.38;;
27889;SDS011;15238;49.082;9.102;2023-06-05T06:32:45;4.43;;;1.73;;
27889;SDS011;15238;49.082;9.102;2023-06-05T06:34:46;3.83;;;1.65;;
27889;SDS011;15238;49.082;9.102;2023-06-05T06:36:46;4.07;;;1.30;;
27889;SDS011;15238;49.082;9.102;2023-06-05T06:38:47;7.22;;;1.52;;
27889;SDS011;15238;49.082;9.102;2023-06-05T06:40:47;6.32;;;1.58;;
27889;SDS011;15238;49.082;9.102;2023-06-05T06:42:48;4.70;;;1.70;;
27889;SDS011;15238;49.082;9.102;2023-06-05T06:44:50;5.55;;;1.48;;
27889;SDS011;15238;49.082;9.102;2023-06-05T06:46:55;3.00;;;1.50;;
27889;SDS011;15238;49.082;9.102;2023-06-05T06:48:56;3.75;;;1.38;;
27889;SDS011;15238;49.082;9.102;2023-06-05T06:50:57;2.53;;;1.33;;
27889;SDS011;15238;49.082;9.102;2023-06-05T06:52:58;2.30;;;1.40;;
27889;SDS011;15238;49.082;9.102;2023-06-05T06:54:58;3.88;;;1.10;;
27889;SDS011;15238;49.082;9.102;2023-06-05T06:56:59;3.33;;;1.50;;
27889;SDS011;15238;49.082;9.102;2023-06-05T06:58:59;2.55;;;1.20;;
27889;SDS011;15238;49.082;9.102;2023-06-05T07:01:00;4.55;;;1.48;;
27889;SDS011;15238;49.082;9.102;2023-06-05T07:03:01;4.07;;;1.38;;
27889;SDS011;15238;49.082;9.102;2023-06-05T07:05:02;4.57;;;1.52;;
27889;SDS011;15238;49.082;9.102;2023-06-05T07:07:03;3.10;;;1.33;;
27889;SDS011;15238;49.082;9.102;2023-06-05T07:09:04;3.33;;;1.35;;
27889;SDS011;15238;49.082;9.102;2023-06-05T07:11:05;2.67;;;1.25;;
27889;SDS011;15238;49.082;9.102;2023-06-05T07:13:05;6.97;;;1.88;;
27889;SDS011;15238;49.082;9.102;2023-06-05T07:15:06;5.38;;;1.55;;
27889;SDS011;15238;49.082;9.102;2023-06-05T07:17:07;3.65;;;1.60;;
27889;SDS011;15238;49.082;9.102;2023-06-05T07:19:08;4.25;;;1.35;;
27889;SDS011;15238;49.082;9.102;2023-06-05T07:21:09;8.52;;;1.60;;
27889;SDS011;15238;49.082;9.102;2023-06-05T07:23:10;4.65;;;1.40;;
27889;SDS011;15238;49.082;9.102;2023-06-05T07:25:10;3.15;;;1.70;;
27889;SDS011;15238;49.082;9.102;2023-06-05T07:27:13;4.13;;;1.70;;
27889;SDS011;15238;49.082;9.102;2023-06-05T07:29:13;4.40;;;1.40;;
27889;SDS011;15238;49.082;9.102;2023-06-05T07:31:15;6.10;;;1.42;;
27889;SDS011;15238;49.082;9.102;2023-06-05T07:33:18;6.55;;;1.63;;
27889;SDS011;15238;49.082;9.102;2023-06-05T07:35:18;4.15;;;1.40;;
27889;SDS011;15238;49.082;9.102;2023-06-05T07:37:19;7.07;;;1.30;;
27889;SDS011;15238;49.082;9.102;2023-06-05T07:39:20;4.93;;;2.78;;
27889;SDS011;15238;49.082;9.102;2023-06-05T07:41:21;4.40;;;1.40;;
27889;SDS011;15238;49.082;9.102;2023-06-05T07:43:22;8.45;;;2.50;;
27889;SDS011;15238;49.082;9.102;2023-06-05T07:45:23;5.45;;;1.60;;
27889;SDS011;15238;49.082;9.102;2023-06-05T07:47:23;3.83;;;1.42;;
27889;SDS011;15238;49.082;9.102;2023-06-05T07:49:24;4.10;;;1.30;;
27889;SDS011;15238;49.082;9.102;2023-06-05T07:51:24;7.65;;;1.40;;
27889;SDS011;15238;49.082;9.102;2023-06-05T07:53:26;2.55;;;1.70;;
27889;SDS011;15238;49.082;9.102;2023-06-05T07:55:27;3.10;;;1.27;;
27889;SDS011;15238;49.082;9.102;2023-06-05T07:57:27;3.45;;;1.45;;
27889;SDS011;15238;49.082;9.102;2023-06-05T07:59:28;5.97;;;1.60;;
27889;SDS011;15238;49.082;9.102;2023-06-05T08:01:29;4.38;;;1.55;;
27889;SDS011;15238;49.082;9.102;2023-06-05T08:03:31;4.68;;;1.60;;
27889;SDS011;15238;49.082;9.102;2023-06-05T08:05:31;4.20;;;1.30;;
27889;SDS011;15238;49.082;9.102;2023-06-05T08:07:33;2.65;;;1.42;;
27889;SDS011;15238;49.082;9.102;2023-06-05T08:09:33;2.65;;;1.48;;
27889;SDS011;15238;49.082;9.102;2023-06-05T08:11:36;3.38;;;1.50;;
27889;SDS011;15238;49.082;9.102;2023-06-05T08:13:38;6.63;;;1.45;;
27889;SDS011;15238;49.082;9.102;2023-06-05T08:15:38;4.18;;;1.50;;
27889;SDS011;15238;49.082;9.102;2023-06-05T08:17:39;2.80;;;1.52;;
27889;SDS011;15238;49.082;9.102;2023-06-05T08:19:39;6.25;;;1.88;;
27889;SDS011;15238;49.082;9.102;2023-06-05T08:21:40;5.78;;;1.85;;
27889;SDS011;15238;49.082;9.102;2023-06-05T08:23:41;4.03;;;1.80;;
27889;SDS011;15238;49.082;9.102;2023-06-05T08:25:41;6.43;;;2.55;;
27889;SDS011;15238;49.082;9.102;2023-06-05T08:27:42;4.75;;;1.90;;
27889;SDS011;15238;49.082;9.102;2023-06-05T08:29:42;5.97;;;1.33;;
27889;SDS011;15238;49.082;9.102;2023-06-05T08:31:43;2.38;;;1.60;;
27889;SDS011;15238;49.082;9.102;2023-06-05T08:33:44;3.30;;;1.65;;
27889;SDS011;15238;49.082;9.102;2023-06-05T08:35:45;4.75;;;2.03;;
27889;SDS011;15238;49.082;9.102;2023-06-05T08:37:45;5.57;;;1.75;;
27889;SDS011;15238;49.082;9.102;2023-06-05T08:39:46;4.22;;;1.80;;
27889;SDS011;15238;49.082;9.102;2023-06-05T08:41:49;4.40;;;1.33;;
27889;SDS011;15238;49.082;9.102;2023-06-05T08:43:51;5.05;;;1.90;;
27889;SDS011;15238;49.082;9.102;2023-06-05T08:45:52;6.22;;;1.73;;
27889;SDS011;15238;49.082;9.102;2023-06-05T08:47:55;3.75;;;1.70;;
27889;SDS011;15238;49.082;9.102;2023-06-05T08:50:01;6.35;;;1.95;;
27889;SDS011;15238;49.082;9.102;2023-06-05T08:52:07;3.10;;;1.88;;
27889;SDS011;15238;49.082;9.102;2023-06-05T08:54:09;5.88;;;2.10;;
27889;SDS011;15238;49.082;9.102;2023-06-05T08:56:13;6.15;;;2.08;;
27889;SDS011;15238;49.082;9.102;2023-06-05T08:58:14;7.38;;;2.33;;
27889;SDS011;15238;49.082;9.102;2023-06-05T09:00:15;4.10;;;2.13;;
27889;SDS011;15238;49.082;9.102;2023-06-05T09:02:16;7.03;;;1.90;;
27889;SDS011;15238;49.082;9.102;2023-06-05T09:04:16;4.55;;;2.03;;
27889;SDS011;15238;49.082;9.102;2023-06-05T09:06:17;5.15;;;1.90;;
27889;SDS011;15238;49.082;9.102;2023-06-05T09:08:17;8.05;;;2.13;;
27889;SDS011;15238;49.082;9.102;2023-06-05T09:10:28;5.85;;;1.85;;
27889;SDS011;15238;49.082;9.102;2023-06-05T09:12:30;4.97;;;2.08;;
27889;SDS011;15238;49.082;9.102;2023-06-05T09:14:30;4.88;;;2.13;;
27889;SDS011;15238;49.082;9.102;2023-06-05T09:16:39;5.22;;;1.92;;
27889;SDS011;15238;49.082;9.102;2023-06-05T09:18:52;6.07;;;1.90;;
27889;SDS011;15238;49.082;9.102;2023-06-05T09:20:56;4.85;;;2.30;;
27889;SDS011;15238;49.082;9.102;2023-06-05T09:23:24;4.78;;;2.63;;
27889;SDS011;15238;49.082;9.102;2023-06-05T09:25:26;6.88;;;2.47;;
27889;SDS011;15238;49.082;9.102;2023-06-05T09:27:28;6.90;;;2.30;;
27889;SDS011;15238;49.082;9.102;2023-06-05T09:29:30;4.88;;;2.15;;
27889;SDS011;15238;49.082;9.102;2023-06-05T09:31:40;8.20;;;2.70;;
27889;SDS011;15238;49.082;9.102;2023-06-05T09:33:41;5.50;;;2.67;;
27889;SDS011;15238;49.082;9.102;2023-06-05T09:36:05;4.32;;;2.40;;
27889;SDS011;15238;49.082;9.102;2023-06-05T09:38:24;4.22;;;2.22;;
27889;SDS011;15238;49.082;9.102;2023-06-05T09:40:38;3.65;;;2.42;;
27889;SDS011;15238;49.082;9.102;2023-06-05T09:42:39;2.78;;;2.25;;
27889;SDS011;15238;49.082;9.102;2023-06-05T09:44:40;6.47;;;2.97;;
27889;SDS011;15238;49.082;9.102;2023-06-05T09:46:50;7.53;;;2.92;;
27889;SDS011;15238;49.082;9.102;2023-06-05T09:48:57;8.10;;;3.22;;
27889;SDS011;15238;49.082;9.102;2023-06-05T09:51:07;4.78;;;2.95;;
27889;SDS011;15238;49.082;9.102;2023-06-05T09:53:09;3.20;;;2.13;;
27889;SDS011;15238;49.082;9.102;2023-06-05T09:55:14;8.32;;;3.47;;
27889;SDS011;15238;49.082;9.102;2023-06-05T09:57:15;7.13;;;2.78;;
27889;SDS011;15238;49.082;9.102;2023-06-05T09:59:19;6.50;;;3.20;;
27889;SDS011;15238;49.082;9.102;2023-06-05T10:01:24;3.72;;;2.90;;
27889;SDS011;15238;49.082;9.102;2023-06-05T10:03:24;4.43;;;2.95;;
27889;SDS011;15238;49.082;9.102;2023-06-05T10:05:27;7.25;;;2.85;;
27889;SDS011;15238;49.082;9.102;2023-06-05T10:07:29;12.35;;;3.28;;
27889;SDS011;15238;49.082;9.102;2023-06-05T10:09:31;3.83;;;2.63;;
27889;SDS011;15238;49.082;9.102;2023-06-05T10:11:32;6.72;;;2.55;;
27889;SDS011;15238;49.082;9.102;2023-06-05T10:13:34;6.05;;;2.83;;
27889;SDS011;15238;49.082;9.102;2023-06-05T10:15:35;8.63;;;2.95;;
27889;SDS011;15238;49.082;9.102;2023-06-05T10:17:38;3.17;;;2.30;;
27889;SDS011;15238;49.082;9.102;2023-06-05T10:19:41;3.03;;;2.17;;
27889;SDS011;15238;49.082;9.102;2023-06-05T10:21:42;5.78;;;2.85;;
27889;SDS011;15238;49.082;9.102;2023-06-05T10:23:48;5.80;;;2.10;;
27889;SDS011;15238;49.082;9.102;2023-06-05T10:26:07;4.32;;;2.60;;
27889;SDS011;15238;49.082;9.102;2023-06-05T10:35:50;2.97;;;2.17;;
27889;SDS011;15238;49.082;9.102;2023-06-05T10:40:14;4.63;;;1.80;;
27889;SDS011;15238;49.082;9.102;2023-06-05T10:42:23;3.15;;;2.30;;
27889;SDS011;15238;49.082;9.102;2023-06-05T10:44:45;3.97;;;2.35;;
27889;SDS011;15238;49.082;9.102;2023-06-05T10:46:45;3.90;;;2.00;;
27889;SDS011;15238;49.082;9.102;2023-06-05T10:49:05;3.38;;;2.20;;
27889;SDS011;15238;49.082;9.102;2023-06-05T10:53:45;5.22;;;1.45;;
27889;SDS011;15238;49.082;9.102;2023-06-05T10:55:49;2.80;;;1.80;;
27889;SDS011;15238;49.082;9.102;2023-06-05T10:58:06;2.80;;;1.60;;
27889;SDS011;15238;49.082;9.102;2023-06-05T11:00:08;3.90;;;2.00;;
27889;SDS011;15238;49.082;9.102;2023-06-05T11:04:15;2.40;;;1.80;;
27889;SDS011;15238;49.082;9.102;2023-06-05T11:06:17;6.82;;;1.90;;
27889;SDS011;15238;49.082;9.102;2023-06-05T11:08:17;2.78;;;2.20;;
27889;SDS011;15238;49.082;9.102;2023-06-05T11:10:20;2.80;;;1.63;;
27889;SDS011;15238;49.082;9.102;2023-06-05T11:12:20;2.90;;;2.15;;
27889;SDS011;15238;49.082;9.102;2023-06-05T11:14:21;4.07;;;2.13;;
27889;SDS011;15238;49.082;9.102;2023-06-05T11:16:32;4.25;;;1.85;;
27889;SDS011;15238;49.082;9.102;2023-06-05T11:18:36;3.20;;;2.03;;
27889;SDS011;15238;49.082;9.102;2023-06-05T11:27:43;6.50;;;2.70;;
27889;SDS011;15238;49.082;9.102;2023-06-05T11:29:45;3.03;;;1.80;;
27889;SDS011;15238;49.082;9.102;2023-06-05T11:31:48;3.00;;;2.00;;
27889;SDS011;15238;49.082;9.102;2023-06-05T11:33:49;4.78;;;2.20;;
27889;SDS011;15238;49.082;9.102;2023-06-05T11:35:49;5.60;;;1.90;;
27889;SDS011;15238;49.082;9.102;2023-06-05T11:38:08;2.22;;;1.85;;
27889;SDS011;15238;49.082;9.102;2023-06-05T11:40:22;3.78;;;2.22;;
27889;SDS011;15238;49.082;9.102;2023-06-05T11:42:24;2.53;;;2.15;;
27889;SDS011;15238;49.082;9.102;2023-06-05T11:44:34;5.95;;;2.42;;
27889;SDS011;15238;49.082;9.102;2023-06-05T11:46:36;5.68;;;2.30;;
27889;SDS011;15238;49.082;9.102;2023-06-05T11:48:44;3.42;;;2.97;;
27889;SDS011;15238;49.082;9.102;2023-06-05T11:50:58;4.28;;;2.20;;
27889;SDS011;15238;49.082;9.102;2023-06-05T11:53:07;4.30;;;2.60;;
27889;SDS011;15238;49.082;9.102;2023-06-05T11:55:16;5.35;;;2.20;;
27889;SDS011;15238;49.082;9.102;2023-06-05T11:57:21;3.35;;;2.38;;
27889;SDS011;15238;49.082;9.102;2023-06-05T11:59:27;3.65;;;2.40;;
27889;SDS011;15238;49.082;9.102;2023-06-05T12:01:28;2.95;;;2.50;;
27889;SDS011;15238;49.082;9.102;2023-06-05T12:03:31;6.13;;;2.13;;
27889;SDS011;15238;49.082;9.102;2023-06-05T12:05:35;3.47;;;2.50;;
27889;SDS011;15238;49.082;9.102;2023-06-05T12:07:36;6.50;;;2.33;;
27889;SDS011;15238;49.082;9.102;2023-06-05T12:09:37;8.50;;;2.35;;
27889;SDS011;15238;49.082;9.102;2023-06-05T12:11:37;3.35;;;2.42;;
27889;SDS011;15238;49.082;9.102;2023-06-05T12:13:51;3.60;;;2.42;;
27889;SDS011;15238;49.082;9.102;2023-06-05T12:15:56;3.35;;;2.13;;
27889;SDS011;15238;49.082;9.102;2023-06-05T12:17:57;4.40;;;2.30;;
27889;SDS011;15238;49.082;9.102;2023-06-05T12:20:00;3.03;;;2.08;;
27889;SDS011;15238;49.082;9.102;2023-06-05T12:22:01;6.70;;;2.40;;
27889;SDS011;15238;49.082;9.102;2023-06-05T12:24:05;5.70;;;2.60;;
27889;SDS011;15238;49.082;9.102;2023-06-05T12:26:06;4.07;;;2.13;;
27889;SDS011;15238;49.082;9.102;2023-06-05T12:28:19;6.32;;;2.42;;
27889;SDS011;15238;49.082;9.102;2023-06-05T12:30:22;5.75;;;2.60;;
27889;SDS011;15238;49.082;9.102;2023-06-05T12:32:23;3.00;;;2.40;;
27889;SDS011;15238;49.082;9.102;2023-06-05T12:34:38;3.08;;;2.00;;
27889;SDS011;15238;49.082;9.102;2023-06-05T12:36:44;5.35;;;2.40;;
27889;SDS011;15238;49.082;9.102;2023-06-05T12:38:47;5.13;;;2.58;;
27889;SDS011;15238;49.082;9.102;2023-06-05T12:40:48;5.20;;;2.97;;